sensor_id;sensor_type;location;lat;lon;timestamp;temperature;humidity
32173;DHT22;18679;45.190;5.722;2023-04-03T00:01:29;13.10;61.40
32173;DHT22;18679;45.190;5.722;2023-04-03T00:04:30;13.20;61.40
32173;DHT22;18679;45.190;5.722;2023-04-03T00:07:31;13.10;61.30
32173;DHT22;18679;45.190;5.722;2023-04-03T00:10:32;13.20;61.40
32173;DHT22;18679;45.190;5.722;2023-04-03T00:13:33;13.20;61.40
32173;DHT22;18679;45.190;5.722;2023-04-03T00:16:34;13.20;61.20
32173;DHT22;18679;45.190;5.722;2023-04-03T00:19:35;13.20;61.10
32173;DHT22;18679;45.190;5.722;2023-04-03T00:22:36;13.30;61.20
32173;DHT22;18679;45.190;5.722;2023-04-03T00:25:37;13.30;61.00
32173;DHT22;18679;45.190;5.722;2023-04-03T00:28:38;13.30;60.80
32173;DHT22;18679;45.190;5.722;2023-04-03T00:31:38;13.30;60.80
32173;DHT22;18679;45.190;5.722;2023-04-03T00:34:39;13.40;60.70
32173;DHT22;18679;45.190;5.722;2023-04-03T00:37:40;13.40;60.40
32173;DHT22;18679;45.190;5.722;2023-04-03T00:40:44;13.40;60.30
32173;DHT22;18679;45.190;5.722;2023-04-03T00:43:46;13.40;60.20
32173;DHT22;18679;45.190;5.722;2023-04-03T00:46:47;13.50;60.30
32173;DHT22;18679;45.190;5.722;2023-04-03T00:49:49;13.40;60.20
32173;DHT22;18679;45.190;5.722;2023-04-03T00:52:51;13.40;60.20
32173;DHT22;18679;45.190;5.722;2023-04-03T00:55:53;13.40;60.30
32173;DHT22;18679;45.190;5.722;2023-04-03T00:59:10;13.40;60.40
32173;DHT22;18679;45.190;5.722;2023-04-03T01:02:12;13.30;60.50
32173;DHT22;18679;45.190;5.722;2023-04-03T01:05:15;13.30;60.80
32173;DHT22;18679;45.190;5.722;2023-04-03T01:08:18;13.30;60.80
32173;DHT22;18679;45.190;5.722;2023-04-03T01:11:19;13.30;60.90
32173;DHT22;18679;45.190;5.722;2023-04-03T01:14:21;13.30;60.90
32173;DHT22;18679;45.190;5.722;2023-04-03T01:24:07;13.40;60.70
32173;DHT22;18679;45.190;5.722;2023-04-03T01:27:11;13.40;60.70
32173;DHT22;18679;45.190;5.722;2023-04-03T01:30:14;13.40;60.70
32173;DHT22;18679;45.190;5.722;2023-04-03T01:33:17;13.30;60.80
32173;DHT22;18679;45.190;5.722;2023-04-03T01:36:26;13.40;60.80
32173;DHT22;18679;45.190;5.722;2023-04-03T01:39:28;13.30;60.90
32173;DHT22;18679;45.190;5.722;2023-04-03T01:42:30;13.30;60.90
32173;DHT22;18679;45.190;5.722;2023-04-03T01:45:30;13.30;60.80
32173;DHT22;18679;45.190;5.722;2023-04-03T01:48:31;13.30;60.80
32173;DHT22;18679;45.190;5.722;2023-04-03T01:51:32;13.30;60.70
32173;DHT22;18679;45.190;5.722;2023-04-03T01:54:34;13.50;60.70
32173;DHT22;18679;45.190;5.722;2023-04-03T01:57:35;13.30;60.60
32173;DHT22;18679;45.190;5.722;2023-04-03T02:00:36;13.40;60.50
32173;DHT22;18679;45.190;5.722;2023-04-03T02:03:37;13.30;60.30
32173;DHT22;18679;45.190;5.722;2023-04-03T02:06:38;13.30;60.20
32173;DHT22;18679;45.190;5.722;2023-04-03T02:09:40;13.30;60.30
32173;DHT22;18679;45.190;5.722;2023-04-03T02:12:41;13.30;60.20
32173;DHT22;18679;45.190;5.722;2023-04-03T02:15:42;13.30;60.30
32173;DHT22;18679;45.190;5.722;2023-04-03T02:18:43;13.40;60.60
32173;DHT22;18679;45.190;5.722;2023-04-03T02:21:44;13.40;60.20
32173;DHT22;18679;45.190;5.722;2023-04-03T02:24:45;13.40;60.20
32173;DHT22;18679;45.190;5.722;2023-04-03T02:27:45;13.30;60.30
32173;DHT22;18679;45.190;5.722;2023-04-03T02:30:46;13.40;60.40
32173;DHT22;18679;45.190;5.722;2023-04-03T02:33:47;13.40;60.30
32173;DHT22;18679;45.190;5.722;2023-04-03T02:36:49;13.30;60.30
32173;DHT22;18679;45.190;5.722;2023-04-03T02:39:52;13.30;60.30
32173;DHT22;18679;45.190;5.722;2023-04-03T02:42:53;13.30;60.30
32173;DHT22;18679;45.190;5.722;2023-04-03T02:45:56;13.30;60.40
32173;DHT22;18679;45.190;5.722;2023-04-03T02:48:57;13.30;60.60
32173;DHT22;18679;45.190;5.722;2023-04-03T02:51:58;13.20;60.70
32173;DHT22;18679;45.190;5.722;2023-04-03T02:54:59;13.20;61.00
32173;DHT22;18679;45.190;5.722;2023-04-03T02:58:00;13.10;61.10
32173;DHT22;18679;45.190;5.722;2023-04-03T03:01:01;13.10;61.30
32173;DHT22;18679;45.190;5.722;2023-04-03T03:04:02;13.10;61.40
32173;DHT22;18679;45.190;5.722;2023-04-03T03:07:03;13.00;61.60
32173;DHT22;18679;45.190;5.722;2023-04-03T03:10:04;12.90;61.60
32173;DHT22;18679;45.190;5.722;2023-04-03T03:13:05;13.00;61.80
32173;DHT22;18679;45.190;5.722;2023-04-03T03:16:06;13.00;61.90
32173;DHT22;18679;45.190;5.722;2023-04-03T03:19:07;12.90;61.80
32173;DHT22;18679;45.190;5.722;2023-04-03T03:22:08;12.90;61.90
32173;DHT22;18679;45.190;5.722;2023-04-03T03:25:09;12.90;61.70
32173;DHT22;18679;45.190;5.722;2023-04-03T03:28:11;13.00;61.70
32173;DHT22;18679;45.190;5.722;2023-04-03T03:31:12;13.00;61.60
32173;DHT22;18679;45.190;5.722;2023-04-03T03:34:14;13.00;61.40
32173;DHT22;18679;45.190;5.722;2023-04-03T03:37:15;13.00;61.20
32173;DHT22;18679;45.190;5.722;2023-04-03T03:40:16;13.10;61.20
32173;DHT22;18679;45.190;5.722;2023-04-03T03:43:18;13.10;61.00
32173;DHT22;18679;45.190;5.722;2023-04-03T03:46:20;13.10;60.80
32173;DHT22;18679;45.190;5.722;2023-04-03T03:49:22;13.10;60.80
32173;DHT22;18679;45.190;5.722;2023-04-03T03:52:23;13.10;60.80
32173;DHT22;18679;45.190;5.722;2023-04-03T03:55:24;13.10;60.70
32173;DHT22;18679;45.190;5.722;2023-04-03T03:58:28;13.10;60.60
32173;DHT22;18679;45.190;5.722;2023-04-03T04:01:29;13.10;60.70
32173;DHT22;18679;45.190;5.722;2023-04-03T04:04:30;13.10;60.70
32173;DHT22;18679;45.190;5.722;2023-04-03T04:07:31;13.00;60.70
32173;DHT22;18679;45.190;5.722;2023-04-03T04:10:33;13.00;60.70
32173;DHT22;18679;45.190;5.722;2023-04-03T04:13:34;13.10;60.70
32173;DHT22;18679;45.190;5.722;2023-04-03T04:16:36;13.10;60.60
32173;DHT22;18679;45.190;5.722;2023-04-03T04:19:43;13.10;60.60
32173;DHT22;18679;45.190;5.722;2023-04-03T04:22:44;13.10;60.60
32173;DHT22;18679;45.190;5.722;2023-04-03T04:25:49;13.10;60.50
32173;DHT22;18679;45.190;5.722;2023-04-03T04:28:51;13.10;60.40
32173;DHT22;18679;45.190;5.722;2023-04-03T04:31:53;13.10;60.50
32173;DHT22;18679;45.190;5.722;2023-04-03T04:34:56;13.10;60.50
32173;DHT22;18679;45.190;5.722;2023-04-03T04:37:57;13.00;60.50
32173;DHT22;18679;45.190;5.722;2023-04-03T04:40:57;13.00;60.70
32173;DHT22;18679;45.190;5.722;2023-04-03T04:43:58;13.00;60.80
32173;DHT22;18679;45.190;5.722;2023-04-03T04:47:01;13.00;61.00
32173;DHT22;18679;45.190;5.722;2023-04-03T04:50:02;12.90;61.00
32173;DHT22;18679;45.190;5.722;2023-04-03T04:53:03;12.90;61.00
32173;DHT22;18679;45.190;5.722;2023-04-03T04:56:05;13.00;61.20
32173;DHT22;18679;45.190;5.722;2023-04-03T04:59:07;13.00;61.10
32173;DHT22;18679;45.190;5.722;2023-04-03T05:02:08;13.00;61.00
32173;DHT22;18679;45.190;5.722;2023-04-03T05:05:10;13.00;61.00
32173;DHT22;18679;45.190;5.722;2023-04-03T05:08:12;13.00;61.10
32173;DHT22;18679;45.190;5.722;2023-04-03T05:11:15;13.00;61.20
32173;DHT22;18679;45.190;5.722;2023-04-03T05:14:18;13.00;61.20
32173;DHT22;18679;45.190;5.722;2023-04-03T05:17:19;13.00;61.20
32173;DHT22;18679;45.190;5.722;2023-04-03T05:20:24;13.00;61.10
32173;DHT22;18679;45.190;5.722;2023-04-03T05:23:26;13.10;61.00
32173;DHT22;18679;45.190;5.722;2023-04-03T05:26:29;13.10;60.90
32173;DHT22;18679;45.190;5.722;2023-04-03T05:29:30;13.10;60.90
32173;DHT22;18679;45.190;5.722;2023-04-03T05:32:33;13.10;60.80
32173;DHT22;18679;45.190;5.722;2023-04-03T05:35:46;13.10;60.70
32173;DHT22;18679;45.190;5.722;2023-04-03T05:38:53;13.10;60.60
32173;DHT22;18679;45.190;5.722;2023-04-03T05:41:54;13.10;60.50
32173;DHT22;18679;45.190;5.722;2023-04-03T05:44:55;13.10;60.40
32173;DHT22;18679;45.190;5.722;2023-04-03T05:47:56;13.20;60.30
32173;DHT22;18679;45.190;5.722;2023-04-03T05:50:58;13.20;60.10
32173;DHT22;18679;45.190;5.722;2023-04-03T05:54:20;13.20;60.00
32173;DHT22;18679;45.190;5.722;2023-04-03T05:57:24;13.20;60.00
32173;DHT22;18679;45.190;5.722;2023-04-03T06:00:25;13.30;60.00
32173;DHT22;18679;45.190;5.722;2023-04-03T06:03:34;13.30;59.90
32173;DHT22;18679;45.190;5.722;2023-04-03T06:06:54;13.30;59.90
32173;DHT22;18679;45.190;5.722;2023-04-03T06:09:57;13.40;60.00
32173;DHT22;18679;45.190;5.722;2023-04-03T06:12:58;13.40;59.90
32173;DHT22;18679;45.190;5.722;2023-04-03T06:15:59;13.50;59.80
32173;DHT22;18679;45.190;5.722;2023-04-03T06:18:59;13.50;59.80
32173;DHT22;18679;45.190;5.722;2023-04-03T06:22:02;13.60;59.70
32173;DHT22;18679;45.190;5.722;2023-04-03T06:25:04;13.60;59.50
32173;DHT22;18679;45.190;5.722;2023-04-03T06:28:07;13.70;59.50
32173;DHT22;18679;45.190;5.722;2023-04-03T06:31:09;13.70;59.40
32173;DHT22;18679;45.190;5.722;2023-04-03T06:34:11;13.70;59.40
32173;DHT22;18679;45.190;5.722;2023-04-03T06:37:18;13.70;59.40
32173;DHT22;18679;45.190;5.722;2023-04-03T06:40:23;13.60;59.40
32173;DHT22;18679;45.190;5.722;2023-04-03T06:43:24;13.70;59.40
32173;DHT22;18679;45.190;5.722;2023-04-03T06:46:26;13.70;59.30
32173;DHT22;18679;45.190;5.722;2023-04-03T06:49:27;13.80;59.20
32173;DHT22;18679;45.190;5.722;2023-04-03T06:52:29;13.80;58.90
32173;DHT22;18679;45.190;5.722;2023-04-03T06:55:30;13.80;58.80
32173;DHT22;18679;45.190;5.722;2023-04-03T06:58:32;13.90;58.70
32173;DHT22;18679;45.190;5.722;2023-04-03T07:01:33;13.90;58.60
32173;DHT22;18679;45.190;5.722;2023-04-03T07:04:34;14.00;58.40
32173;DHT22;18679;45.190;5.722;2023-04-03T07:07:35;14.10;58.30
32173;DHT22;18679;45.190;5.722;2023-04-03T07:10:37;14.20;58.00
32173;DHT22;18679;45.190;5.722;2023-04-03T07:13:38;14.20;57.80
32173;DHT22;18679;45.190;5.722;2023-04-03T07:16:39;14.30;57.60
32173;DHT22;18679;45.190;5.722;2023-04-03T07:19:41;14.40;57.60
32173;DHT22;18679;45.190;5.722;2023-04-03T07:22:41;14.40;57.40
32173;DHT22;18679;45.190;5.722;2023-04-03T07:25:47;14.50;57.20
32173;DHT22;18679;45.190;5.722;2023-04-03T07:28:48;14.60;57.10
32173;DHT22;18679;45.190;5.722;2023-04-03T07:31:50;14.60;57.00
32173;DHT22;18679;45.190;5.722;2023-04-03T07:34:51;14.60;56.80
32173;DHT22;18679;45.190;5.722;2023-04-03T07:37:52;14.60;56.60
32173;DHT22;18679;45.190;5.722;2023-04-03T07:40:53;14.60;56.40
32173;DHT22;18679;45.190;5.722;2023-04-03T07:43:54;14.60;56.50
32173;DHT22;18679;45.190;5.722;2023-04-03T07:46:57;14.60;56.50
32173;DHT22;18679;45.190;5.722;2023-04-03T07:49:57;14.70;56.40
32173;DHT22;18679;45.190;5.722;2023-04-03T07:52:59;14.70;56.30
32173;DHT22;18679;45.190;5.722;2023-04-03T07:56:00;14.70;56.20
32173;DHT22;18679;45.190;5.722;2023-04-03T07:59:03;14.70;56.10
32173;DHT22;18679;45.190;5.722;2023-04-03T08:02:03;14.70;56.10
32173;DHT22;18679;45.190;5.722;2023-04-03T08:05:06;14.70;56.10
32173;DHT22;18679;45.190;5.722;2023-04-03T08:08:07;14.80;56.20
32173;DHT22;18679;45.190;5.722;2023-04-03T08:11:10;14.80;56.10
32173;DHT22;18679;45.190;5.722;2023-04-03T08:14:12;14.80;56.10
32173;DHT22;18679;45.190;5.722;2023-04-03T08:17:16;14.80;56.00
32173;DHT22;18679;45.190;5.722;2023-04-03T08:20:18;14.90;56.00
32173;DHT22;18679;45.190;5.722;2023-04-03T08:23:19;14.90;56.00
32173;DHT22;18679;45.190;5.722;2023-04-03T08:26:21;14.90;56.00
32173;DHT22;18679;45.190;5.722;2023-04-03T08:29:22;15.00;55.80
32173;DHT22;18679;45.190;5.722;2023-04-03T08:32:24;15.00;55.70
32173;DHT22;18679;45.190;5.722;2023-04-03T08:35:24;15.10;55.60
32173;DHT22;18679;45.190;5.722;2023-04-03T08:38:26;15.20;55.50
32173;DHT22;18679;45.190;5.722;2023-04-03T08:41:35;15.20;55.40
32173;DHT22;18679;45.190;5.722;2023-04-03T08:48:00;15.20;55.30
32173;DHT22;18679;45.190;5.722;2023-04-03T08:51:13;15.30;55.30
32173;DHT22;18679;45.190;5.722;2023-04-03T08:54:51;15.40;55.30
32173;DHT22;18679;45.190;5.722;2023-04-03T08:58:03;15.40;55.10
32173;DHT22;18679;45.190;5.722;2023-04-03T09:04:23;15.40;55.00
32173;DHT22;18679;45.190;5.722;2023-04-03T09:07:49;15.40;55.10
32173;DHT22;18679;45.190;5.722;2023-04-03T09:11:12;15.50;55.00
32173;DHT22;18679;45.190;5.722;2023-04-03T09:23:58;15.70;54.30
32173;DHT22;18679;45.190;5.722;2023-04-03T09:27:04;15.60;54.20
32173;DHT22;18679;45.190;5.722;2023-04-03T09:30:13;15.80;54.20
32173;DHT22;18679;45.190;5.722;2023-04-03T09:33:16;15.80;53.90
32173;DHT22;18679;45.190;5.722;2023-04-03T09:39:53;15.80;53.60
32173;DHT22;18679;45.190;5.722;2023-04-03T09:43:00;15.80;53.70
32173;DHT22;18679;45.190;5.722;2023-04-03T09:49:30;15.60;53.90
32173;DHT22;18679;45.190;5.722;2023-04-03T09:52:31;15.50;54.10
32173;DHT22;18679;45.190;5.722;2023-04-03T09:55:33;15.40;54.40
32173;DHT22;18679;45.190;5.722;2023-04-03T09:59:05;15.40;54.50
32173;DHT22;18679;45.190;5.722;2023-04-03T10:02:23;15.40;55.10
32173;DHT22;18679;45.190;5.722;2023-04-03T10:05:33;15.30;54.60
32173;DHT22;18679;45.190;5.722;2023-04-03T10:08:35;15.40;54.60
32173;DHT22;18679;45.190;5.722;2023-04-03T10:11:36;15.40;54.50
32173;DHT22;18679;45.190;5.722;2023-04-03T10:14:39;15.40;54.40
32173;DHT22;18679;45.190;5.722;2023-04-03T10:20:53;15.50;54.20
32173;DHT22;18679;45.190;5.722;2023-04-03T10:34:06;15.40;54.20
32173;DHT22;18679;45.190;5.722;2023-04-03T10:48:21;15.40;54.10
32173;DHT22;18679;45.190;5.722;2023-04-03T10:51:45;15.30;54.10
32173;DHT22;18679;45.190;5.722;2023-04-03T10:58:26;15.30;54.30
32173;DHT22;18679;45.190;5.722;2023-04-03T11:01:36;15.40;54.30
32173;DHT22;18679;45.190;5.722;2023-04-03T11:04:40;15.50;53.90
32173;DHT22;18679;45.190;5.722;2023-04-03T11:07:47;15.50;53.40
32173;DHT22;18679;45.190;5.722;2023-04-03T11:10:50;15.60;53.40
32173;DHT22;18679;45.190;5.722;2023-04-03T11:14:15;15.60;53.20
32173;DHT22;18679;45.190;5.722;2023-04-03T11:23:30;16.00;52.80
32173;DHT22;18679;45.190;5.722;2023-04-03T11:26:36;16.20;51.70
32173;DHT22;18679;45.190;5.722;2023-04-03T11:29:40;16.40;51.40
32173;DHT22;18679;45.190;5.722;2023-04-03T11:33:20;16.60;50.50
32173;DHT22;18679;45.190;5.722;2023-04-03T11:36:29;16.60;50.40
32173;DHT22;18679;45.190;5.722;2023-04-03T11:39:34;16.70;50.20
32173;DHT22;18679;45.190;5.722;2023-04-03T11:42:38;16.70;50.00
32173;DHT22;18679;45.190;5.722;2023-04-03T11:45:53;16.60;49.90
32173;DHT22;18679;45.190;5.722;2023-04-03T11:48:55;16.50;50.20
32173;DHT22;18679;45.190;5.722;2023-04-03T11:51:56;16.40;50.10
32173;DHT22;18679;45.190;5.722;2023-04-03T11:54:57;16.30;50.10
32173;DHT22;18679;45.190;5.722;2023-04-03T12:01:11;16.20;50.30
32173;DHT22;18679;45.190;5.722;2023-04-03T12:04:14;16.20;50.30
32173;DHT22;18679;45.190;5.722;2023-04-03T12:07:19;16.30;50.00
32173;DHT22;18679;45.190;5.722;2023-04-03T12:10:20;16.50;49.90
32173;DHT22;18679;45.190;5.722;2023-04-03T12:13:21;16.70;49.40
32173;DHT22;18679;45.190;5.722;2023-04-03T12:19:39;17.70;47.70
32173;DHT22;18679;45.190;5.722;2023-04-03T12:23:22;18.80;45.60
32173;DHT22;18679;45.190;5.722;2023-04-03T12:33:09;19.70;42.40
32173;DHT22;18679;45.190;5.722;2023-04-03T12:36:23;19.20;42.90
32173;DHT22;18679;45.190;5.722;2023-04-03T12:43:05;18.40;44.10
32173;DHT22;18679;45.190;5.722;2023-04-03T12:46:19;18.50;44.40
32173;DHT22;18679;45.190;5.722;2023-04-03T12:49:39;18.40;44.00
32173;DHT22;18679;45.190;5.722;2023-04-03T12:52:45;18.30;44.60
32173;DHT22;18679;45.190;5.722;2023-04-03T12:55:56;18.20;44.80
32173;DHT22;18679;45.190;5.722;2023-04-03T12:59:20;18.10;45.10
32173;DHT22;18679;45.190;5.722;2023-04-03T13:02:28;17.80;45.50
32173;DHT22;18679;45.190;5.722;2023-04-03T13:05:31;17.60;46.00
32173;DHT22;18679;45.190;5.722;2023-04-03T13:08:33;17.40;46.70
32173;DHT22;18679;45.190;5.722;2023-04-03T13:11:36;17.20;47.40
32173;DHT22;18679;45.190;5.722;2023-04-03T13:14:38;16.90;47.80
32173;DHT22;18679;45.190;5.722;2023-04-03T13:17:43;16.70;48.20
32173;DHT22;18679;45.190;5.722;2023-04-03T13:20:48;16.60;48.60
32173;DHT22;18679;45.190;5.722;2023-04-03T13:23:52;16.60;48.80
32173;DHT22;18679;45.190;5.722;2023-04-03T13:26:54;16.60;48.90
32173;DHT22;18679;45.190;5.722;2023-04-03T13:29:58;16.50;48.90
32173;DHT22;18679;45.190;5.722;2023-04-03T13:33:01;16.40;49.10
32173;DHT22;18679;45.190;5.722;2023-04-03T13:36:21;16.40;49.30
32173;DHT22;18679;45.190;5.722;2023-04-03T13:39:30;16.30;49.40
32173;DHT22;18679;45.190;5.722;2023-04-03T13:42:32;16.30;49.50
32173;DHT22;18679;45.190;5.722;2023-04-03T13:45:34;16.30;49.50
32173;DHT22;18679;45.190;5.722;2023-04-03T13:48:47;16.40;49.40
32173;DHT22;18679;45.190;5.722;2023-04-03T13:51:49;16.40;49.50
32173;DHT22;18679;45.190;5.722;2023-04-03T13:55:00;16.40;49.40
32173;DHT22;18679;45.190;5.722;2023-04-03T13:58:19;16.40;49.40
32173;DHT22;18679;45.190;5.722;2023-04-03T14:01:23;16.40;49.50
32173;DHT22;18679;45.190;5.722;2023-04-03T14:04:28;16.50;49.60
32173;DHT22;18679;45.190;5.722;2023-04-03T14:07:30;16.50;49.60
32173;DHT22;18679;45.190;5.722;2023-04-03T14:10:34;16.50;49.60
32173;DHT22;18679;45.190;5.722;2023-04-03T14:13:35;16.60;49.60
32173;DHT22;18679;45.190;5.722;2023-04-03T14:16:39;16.50;49.40
32173;DHT22;18679;45.190;5.722;2023-04-03T14:19:41;16.50;49.60
32173;DHT22;18679;45.190;5.722;2023-04-03T14:22:43;16.50;49.60
32173;DHT22;18679;45.190;5.722;2023-04-03T14:25:44;16.40;49.80
32173;DHT22;18679;45.190;5.722;2023-04-03T14:28:48;16.30;50.00
32173;DHT22;18679;45.190;5.722;2023-04-03T14:31:49;16.10;50.10
32173;DHT22;18679;45.190;5.722;2023-04-03T14:34:51;16.00;50.20
32173;DHT22;18679;45.190;5.722;2023-04-03T14:37:53;16.00;50.20
32173;DHT22;18679;45.190;5.722;2023-04-03T14:40:55;16.00;50.30
32173;DHT22;18679;45.190;5.722;2023-04-03T14:43:56;16.00;50.50
32173;DHT22;18679;45.190;5.722;2023-04-03T14:46:57;16.20;50.40
32173;DHT22;18679;45.190;5.722;2023-04-03T14:50:00;16.40;50.00
32173;DHT22;18679;45.190;5.722;2023-04-03T14:53:01;16.50;49.70
32173;DHT22;18679;45.190;5.722;2023-04-03T14:56:04;16.50;49.40
32173;DHT22;18679;45.190;5.722;2023-04-03T14:59:09;16.60;49.20
32173;DHT22;18679;45.190;5.722;2023-04-03T15:05:27;16.50;49.20
32173;DHT22;18679;45.190;5.722;2023-04-03T15:08:28;16.50;49.40
32173;DHT22;18679;45.190;5.722;2023-04-03T15:11:30;16.60;49.30
32173;DHT22;18679;45.190;5.722;2023-04-03T15:14:30;16.60;49.10
32173;DHT22;18679;45.190;5.722;2023-04-03T15:17:31;16.60;49.20
32173;DHT22;18679;45.190;5.722;2023-04-03T15:20:32;16.60;49.20
32173;DHT22;18679;45.190;5.722;2023-04-03T15:23:34;16.60;49.00
32173;DHT22;18679;45.190;5.722;2023-04-03T15:26:35;16.60;49.70
32173;DHT22;18679;45.190;5.722;2023-04-03T15:29:36;16.50;49.20
32173;DHT22;18679;45.190;5.722;2023-04-03T15:32:37;16.60;49.30
32173;DHT22;18679;45.190;5.722;2023-04-03T15:35:38;16.60;49.20
32173;DHT22;18679;45.190;5.722;2023-04-03T15:38:39;16.60;49.30
32173;DHT22;18679;45.190;5.722;2023-04-03T15:41:40;16.70;49.20
32173;DHT22;18679;45.190;5.722;2023-04-03T15:44:41;16.70;49.00
32173;DHT22;18679;45.190;5.722;2023-04-03T15:47:42;16.60;48.90
32173;DHT22;18679;45.190;5.722;2023-04-03T15:50:43;16.50;49.00
32173;DHT22;18679;45.190;5.722;2023-04-03T15:53:43;16.40;49.60
32173;DHT22;18679;45.190;5.722;2023-04-03T15:56:45;16.30;49.20
32173;DHT22;18679;45.190;5.722;2023-04-03T15:59:46;16.20;49.90
32173;DHT22;18679;45.190;5.722;2023-04-03T16:02:47;16.10;49.60
32173;DHT22;18679;45.190;5.722;2023-04-03T16:05:49;16.00;49.80
32173;DHT22;18679;45.190;5.722;2023-04-03T16:08:51;16.00;50.00
32173;DHT22;18679;45.190;5.722;2023-04-03T16:12:17;16.00;50.00
32173;DHT22;18679;45.190;5.722;2023-04-03T16:15:18;16.00;50.10
32173;DHT22;18679;45.190;5.722;2023-04-03T16:18:19;16.10;50.20
32173;DHT22;18679;45.190;5.722;2023-04-03T16:21:20;16.20;49.80
32173;DHT22;18679;45.190;5.722;2023-04-03T16:24:21;16.10;49.70
32173;DHT22;18679;45.190;5.722;2023-04-03T16:27:23;16.10;50.00
32173;DHT22;18679;45.190;5.722;2023-04-03T16:30:29;16.20;50.00
32173;DHT22;18679;45.190;5.722;2023-04-03T16:33:30;16.20;49.80
32173;DHT22;18679;45.190;5.722;2023-04-03T16:36:31;16.10;49.80
32173;DHT22;18679;45.190;5.722;2023-04-03T16:39:32;16.10;49.70
32173;DHT22;18679;45.190;5.722;2023-04-03T16:42:32;16.10;49.80
32173;DHT22;18679;45.190;5.722;2023-04-03T16:45:33;16.10;49.90
32173;DHT22;18679;45.190;5.722;2023-04-03T16:48:34;16.00;49.90
32173;DHT22;18679;45.190;5.722;2023-04-03T16:51:35;16.10;49.70
32173;DHT22;18679;45.190;5.722;2023-04-03T16:54:36;16.00;49.60
32173;DHT22;18679;45.190;5.722;2023-04-03T16:57:37;16.00;49.70
32173;DHT22;18679;45.190;5.722;2023-04-03T17:00:38;16.00;49.70
32173;DHT22;18679;45.190;5.722;2023-04-03T17:03:39;15.90;49.60
32173;DHT22;18679;45.190;5.722;2023-04-03T17:06:40;15.90;49.80
32173;DHT22;18679;45.190;5.722;2023-04-03T17:09:41;15.80;49.80
32173;DHT22;18679;45.190;5.722;2023-04-03T17:12:42;15.70;49.60
32173;DHT22;18679;45.190;5.722;2023-04-03T17:15:43;15.70;49.20
32173;DHT22;18679;45.190;5.722;2023-04-03T17:18:44;15.70;49.30
32173;DHT22;18679;45.190;5.722;2023-04-03T17:21:45;15.70;49.40
32173;DHT22;18679;45.190;5.722;2023-04-03T17:24:46;15.70;49.40
32173;DHT22;18679;45.190;5.722;2023-04-03T17:27:47;15.70;49.20
32173;DHT22;18679;45.190;5.722;2023-04-03T17:30:48;15.60;49.20
32173;DHT22;18679;45.190;5.722;2023-04-03T17:33:49;15.60;48.70
32173;DHT22;18679;45.190;5.722;2023-04-03T17:36:50;15.70;47.90
32173;DHT22;18679;45.190;5.722;2023-04-03T17:39:51;15.60;47.30
32173;DHT22;18679;45.190;5.722;2023-04-03T17:42:52;15.60;46.30
32173;DHT22;18679;45.190;5.722;2023-04-03T17:45:53;15.60;46.20
32173;DHT22;18679;45.190;5.722;2023-04-03T17:49:03;15.60;46.00
32173;DHT22;18679;45.190;5.722;2023-04-03T17:52:04;15.60;45.30
32173;DHT22;18679;45.190;5.722;2023-04-03T17:55:05;15.60;44.20
32173;DHT22;18679;45.190;5.722;2023-04-03T17:58:06;15.60;43.70
32173;DHT22;18679;45.190;5.722;2023-04-03T18:01:17;15.60;43.60
32173;DHT22;18679;45.190;5.722;2023-04-03T18:04:18;15.50;42.60
32173;DHT22;18679;45.190;5.722;2023-04-03T18:07:20;15.50;42.40
32173;DHT22;18679;45.190;5.722;2023-04-03T18:10:21;15.50;42.70
32173;DHT22;18679;45.190;5.722;2023-04-03T18:13:22;15.40;43.20
32173;DHT22;18679;45.190;5.722;2023-04-03T18:16:22;15.40;44.10
32173;DHT22;18679;45.190;5.722;2023-04-03T18:19:24;15.30;43.10
32173;DHT22;18679;45.190;5.722;2023-04-03T18:22:26;15.30;43.40
32173;DHT22;18679;45.190;5.722;2023-04-03T18:25:27;15.30;42.20
32173;DHT22;18679;45.190;5.722;2023-04-03T18:28:28;15.30;41.90
32173;DHT22;18679;45.190;5.722;2023-04-03T18:31:32;15.30;41.60
32173;DHT22;18679;45.190;5.722;2023-04-03T18:34:34;15.20;41.40
32173;DHT22;18679;45.190;5.722;2023-04-03T18:37:35;15.20;41.00
32173;DHT22;18679;45.190;5.722;2023-04-03T18:40:36;15.10;40.60
32173;DHT22;18679;45.190;5.722;2023-04-03T18:43:37;15.00;40.30
32173;DHT22;18679;45.190;5.722;2023-04-03T18:46:39;15.10;40.30
32173;DHT22;18679;45.190;5.722;2023-04-03T18:49:40;15.10;40.50
32173;DHT22;18679;45.190;5.722;2023-04-03T18:52:42;15.00;41.00
32173;DHT22;18679;45.190;5.722;2023-04-03T18:55:43;15.00;41.20
32173;DHT22;18679;45.190;5.722;2023-04-03T18:58:45;14.90;42.20
32173;DHT22;18679;45.190;5.722;2023-04-03T19:01:45;14.90;41.60
32173;DHT22;18679;45.190;5.722;2023-04-03T19:04:47;14.90;41.00
32173;DHT22;18679;45.190;5.722;2023-04-03T19:07:48;14.80;40.40
32173;DHT22;18679;45.190;5.722;2023-04-03T19:10:49;14.80;40.30
32173;DHT22;18679;45.190;5.722;2023-04-03T19:13:50;14.70;40.40
32173;DHT22;18679;45.190;5.722;2023-04-03T19:16:51;14.60;40.60
32173;DHT22;18679;45.190;5.722;2023-04-03T19:19:52;14.60;40.90
32173;DHT22;18679;45.190;5.722;2023-04-03T19:22:53;14.50;40.90
32173;DHT22;18679;45.190;5.722;2023-04-03T19:28:59;14.30;41.10
32173;DHT22;18679;45.190;5.722;2023-04-03T19:32:00;14.20;41.10
32173;DHT22;18679;45.190;5.722;2023-04-03T19:35:01;14.20;41.20
32173;DHT22;18679;45.190;5.722;2023-04-03T19:38:02;14.10;41.20
32173;DHT22;18679;45.190;5.722;2023-04-03T19:41:04;14.00;41.10
32173;DHT22;18679;45.190;5.722;2023-04-03T19:44:06;13.90;41.10
32173;DHT22;18679;45.190;5.722;2023-04-03T19:47:08;13.80;41.10
32173;DHT22;18679;45.190;5.722;2023-04-03T19:50:10;13.70;41.20
32173;DHT22;18679;45.190;5.722;2023-04-03T19:53:11;13.60;41.30
32173;DHT22;18679;45.190;5.722;2023-04-03T19:56:18;13.60;41.50
32173;DHT22;18679;45.190;5.722;2023-04-03T19:59:21;13.40;41.60
32173;DHT22;18679;45.190;5.722;2023-04-03T20:02:22;13.40;41.90
32173;DHT22;18679;45.190;5.722;2023-04-03T20:05:23;13.40;42.10
32173;DHT22;18679;45.190;5.722;2023-04-03T20:08:24;13.20;42.20
32173;DHT22;18679;45.190;5.722;2023-04-03T20:11:33;13.20;42.20
32173;DHT22;18679;45.190;5.722;2023-04-03T20:14:35;13.20;42.40
32173;DHT22;18679;45.190;5.722;2023-04-03T20:17:37;13.10;42.50
32173;DHT22;18679;45.190;5.722;2023-04-03T20:20:38;13.10;42.60
32173;DHT22;18679;45.190;5.722;2023-04-03T20:23:41;13.10;42.60
32173;DHT22;18679;45.190;5.722;2023-04-03T20:26:42;13.00;42.70
32173;DHT22;18679;45.190;5.722;2023-04-03T20:29:45;13.00;42.80
32173;DHT22;18679;45.190;5.722;2023-04-03T20:32:47;13.00;42.80
32173;DHT22;18679;45.190;5.722;2023-04-03T20:35:49;12.90;42.80
32173;DHT22;18679;45.190;5.722;2023-04-03T20:38:50;12.90;42.80
32173;DHT22;18679;45.190;5.722;2023-04-03T20:41:51;12.90;42.90
32173;DHT22;18679;45.190;5.722;2023-04-03T20:44:52;12.80;42.80